Time;durP1;ratioP1;P1;durP2;ratioP2;P2;SDS_P1;SDS_P2;PMS_P1;PMS_P2;Temp;Humidity;BMP_temperature;BMP_pressure;BME280_temperature;BME280_humidity;BME280_pressure;Samples;Min_cycle;Max_cycle;Signal;HPM_P1;HPM_P2
2022/02/21 00:02:00;;;;;;;22.40;21.40;;;13.30;77.30;;;;;;5013945;28;20522;-83
2022/02/21 00:04:26;;;;;;;22.02;21.02;;;13.20;77.30;;;;;;4994480;28;20026;-83
2022/02/21 00:06:52;;;;;;;21.88;20.88;;;13.20;78.10;;;;;;5043535;28;20049;-83
2022/02/21 00:09:18;;;;;;;22.15;21.15;;;13.20;77.40;;;;;;5014354;28;20038;-83
2022/02/21 00:11:44;;;;;;;22.77;21.75;;;13.20;77.40;;;;;;5009775;28;20053;-83
2022/02/21 00:14:11;;;;;;;23.38;22.17;;;13.10;77.30;;;;;;5009736;28;20045;-83
2022/02/21 00:16:37;;;;;;;22.80;21.70;;;13.10;77.30;;;;;;5008776;28;20038;-83
2022/02/21 00:19:03;;;;;;;22.27;21.27;;;13.10;77.30;;;;;;4995032;28;20503;-83
2022/02/21 00:21:29;;;;;;;24.38;22.63;;;13.00;76.90;;;;;;5008714;28;20040;-83
2022/02/21 00:23:55;;;;;;;22.30;21.27;;;13.00;76.60;;;;;;5024525;28;20042;-83
2022/02/21 00:26:22;;;;;;;23.50;22.40;;;12.90;76.40;;;;;;5010144;28;20038;-83
2022/02/21 00:28:48;;;;;;;518.13;267.30;;;12.80;76.30;;;;;;5012536;28;20033;-83
2022/02/21 00:31:14;;;;;;;24.58;23.30;;;12.70;76.00;;;;;;4978953;28;20053;-83
2022/02/21 00:33:41;;;;;;;1999.90;999.90;;;12.50;75.50;;;;;;5044602;28;20034;-83
2022/02/21 00:36:07;;;;;;;1999.90;999.90;;;12.40;75.60;;;;;;5011134;28;20029;-83
2022/02/21 00:38:33;;;;;;;520.70;269.73;;;12.40;75.70;;;;;;5022197;28;20069;-83
2022/02/21 00:40:59;;;;;;;1018.88;517.97;;;12.30;75.50;;;;;;5024162;28;20040;-83
2022/02/21 00:43:26;;;;;;;1999.90;999.90;;;12.20;75.50;;;;;;5010697;28;20029;-83
2022/02/21 00:45:52;;;;;;;1999.90;999.90;;;12.10;75.40;;;;;;5025754;28;20022;-83
2022/02/21 00:48:18;;;;;;;1999.90;999.90;;;12.00;75.30;;;;;;5010534;28;20399;-83
2022/02/21 00:50:44;;;;;;;1999.90;999.90;;;12.00;75.10;;;;;;5007611;28;20036;-83
2022/02/21 00:53:10;;;;;;;1999.90;999.90;;;11.90;74.90;;;;;;5009512;28;20038;-83
2022/02/21 00:55:36;;;;;;;1999.90;999.90;;;11.90;74.80;;;;;;5011502;28;20418;-83
2022/02/21 00:58:03;;;;;;;1999.90;999.90;;;11.90;74.40;;;;;;5009104;28;20037;-83
2022/02/21 01:00:29;;;;;;;1999.90;999.90;;;11.80;74.30;;;;;;5006146;28;20030;-83
2022/02/21 01:02:55;;;;;;;1999.90;999.90;;;11.80;74.30;;;;;;5043713;28;20026;-83
2022/02/21 01:05:21;;;;;;;1999.90;999.90;;;11.70;74.30;;;;;;5011267;28;20033;-83
2022/02/21 01:07:48;;;;;;;1999.90;999.90;;;11.70;74.00;;;;;;4992722;28;20048;-83
2022/02/21 01:10:14;;;;;;;1999.90;999.90;;;11.70;73.80;;;;;;5042203;28;20030;-83
2022/02/21 01:12:40;;;;;;;1999.90;999.90;;;11.60;73.80;;;;;;5042219;28;20052;-83
2022/02/21 01:15:07;;;;;;;1999.90;999.90;;;11.60;73.70;;;;;;5009947;28;20382;-83
2022/02/21 01:17:33;;;;;;;1999.90;999.90;;;11.50;73.60;;;;;;5019126;28;20041;-83
2022/02/21 01:20:03;;;;;;;1999.90;999.90;;;11.50;73.50;;;;;;5009611;28;20049;-83
2022/02/21 01:22:30;;;;;;;1999.90;999.90;;;11.50;73.50;;;;;;5009317;28;20037;-83
2022/02/21 01:24:56;;;;;;;1999.90;999.90;;;11.50;73.50;;;;;;5026672;28;20034;-83
2022/02/21 01:27:22;;;;;;;1999.90;999.90;;;11.50;73.50;;;;;;5010653;28;20037;-83
2022/02/21 01:29:48;;;;;;;1999.90;999.90;;;11.40;73.40;;;;;;5011268;28;20420;-83
2022/02/21 01:32:15;;;;;;;1999.90;999.90;;;11.40;73.30;;;;;;5011365;28;20053;-83
2022/02/21 01:34:41;;;;;;;1999.90;999.90;;;11.40;73.30;;;;;;5010675;28;20033;-83
2022/02/21 01:37:07;;;;;;;1999.90;999.90;;;11.40;73.30;;;;;;5011642;28;20386;-83
2022/02/21 01:39:33;;;;;;;1999.90;999.90;;;11.30;73.20;;;;;;5011031;28;20038;-83
2022/02/21 01:41:59;;;;;;;1999.90;999.90;;;11.30;73.30;;;;;;4994373;28;20034;-83
2022/02/21 01:44:42;;;;;;;1999.90;999.90;;;11.20;73.40;;;;;;5006902;28;20060;-83
2022/02/21 01:47:10;;;;;;;1999.90;999.90;;;11.20;73.40;;;;;;5034678;28;20049;-83
2022/02/21 01:49:36;;;;;;;1999.90;999.90;;;11.20;73.40;;;;;;4991385;28;20381;-83
2022/02/21 01:52:03;;;;;;;1999.90;999.90;;;11.10;73.30;;;;;;5026104;28;20042;-83
2022/02/21 01:54:30;;;;;;;1999.90;999.90;;;11.10;73.30;;;;;;4989810;28;20037;-83
2022/02/21 01:56:57;;;;;;;1999.90;999.90;;;11.00;73.20;;;;;;5043885;28;20489;-83
2022/02/21 01:59:24;;;;;;;1999.90;999.90;;;11.00;74.00;;;;;;5046755;28;20041;-83
2022/02/21 02:01:53;;;;;;;1999.90;999.90;;;10.90;73.10;;;;;;5011778;28;20030;-83
2022/02/21 02:04:20;;;;;;;1999.90;999.90;;;10.90;73.10;;;;;;4996730;28;20030;-83
2022/02/21 02:06:47;;;;;;;1999.90;999.90;;;10.90;73.00;;;;;;5011518;28;20045;-83
2022/02/21 02:09:13;;;;;;;1999.90;999.90;;;10.90;73.00;;;;;;5010338;28;20037;-83
2022/02/21 02:11:39;;;;;;;1999.90;999.90;;;10.90;72.90;;;;;;5014916;28;20502;-83
2022/02/21 02:14:06;;;;;;;1999.90;999.90;;;10.80;73.00;;;;;;4994728;28;20025;-83
2022/02/21 02:16:32;;;;;;;1999.90;999.90;;;10.90;73.00;;;;;;5046489;28;20037;-83
2022/02/21 02:18:59;;;;;;;1999.90;999.90;;;10.80;72.90;;;;;;5046135;28;20026;-83
2022/02/21 02:21:26;;;;;;;1999.90;999.90;;;10.80;72.90;;;;;;5012161;28;20041;-83
2022/02/21 02:23:52;;;;;;;1999.90;999.90;;;10.80;72.90;;;;;;5046526;28;20046;-83
2022/02/21 02:26:19;;;;;;;1999.90;999.90;;;10.80;73.00;;;;;;4993632;28;20038;-83
2022/02/21 02:28:46;;;;;;;1999.90;999.90;;;10.70;73.00;;;;;;5018007;28;20478;-83
2022/02/21 02:31:12;;;;;;;1999.90;999.90;;;10.70;72.90;;;;;;5013696;28;20038;-83
2022/02/21 02:33:38;;;;;;;1999.90;999.90;;;10.70;72.90;;;;;;5046948;28;20391;-83
2022/02/21 02:36:05;;;;;;;1999.90;999.90;;;10.70;72.90;;;;;;5012682;28;20041;-83
2022/02/21 02:38:31;;;;;;;1999.90;999.90;;;10.70;73.00;;;;;;5013715;28;20037;-83
2022/02/21 02:40:57;;;;;;;1999.90;999.90;;;10.70;73.00;;;;;;5012103;28;20386;-83
2022/02/21 02:43:23;;;;;;;1999.90;999.90;;;10.60;73.00;;;;;;5008025;28;20034;-83
2022/02/21 02:45:49;;;;;;;1999.90;999.90;;;10.60;73.00;;;;;;5045974;28;20034;-83
2022/02/21 02:48:15;;;;;;;1999.90;999.90;;;10.60;73.10;;;;;;4996168;28;20042;-83
2022/02/21 02:50:41;;;;;;;1999.90;999.90;;;10.60;73.00;;;;;;5045462;28;20048;-83
2022/02/21 02:53:08;;;;;;;1999.90;999.90;;;10.50;72.90;;;;;;4996705;28;20045;-83
2022/02/21 02:55:34;;;;;;;1999.90;999.90;;;10.50;72.90;;;;;;4996266;28;20466;-83
2022/02/21 02:58:00;;;;;;;1999.90;999.90;;;10.50;72.90;;;;;;5044425;28;20049;-83
2022/02/21 03:00:26;;;;;;;1999.90;999.90;;;10.50;72.90;;;;;;5012580;28;20089;-83
2022/02/21 03:02:52;;;;;;;1999.90;999.90;;;10.40;72.90;;;;;;5007870;28;20666;-83
2022/02/21 03:05:19;;;;;;;1999.90;999.90;;;10.40;72.90;;;;;;5009621;28;20068;-83
2022/02/21 03:07:45;;;;;;;1999.90;999.90;;;10.40;72.90;;;;;;4987512;28;20057;-84
2022/02/21 03:10:11;;;;;;;1999.90;999.90;;;10.50;72.90;;;;;;5006200;28;20021;-83
2022/02/21 03:12:37;;;;;;;1999.90;999.90;;;10.40;72.70;;;;;;4993150;28;20045;-84
2022/02/21 03:15:03;;;;;;;1999.90;999.90;;;10.50;72.80;;;;;;5010606;28;20475;-83
2022/02/21 03:17:29;;;;;;;1999.90;999.90;;;10.40;72.80;;;;;;5011093;28;20026;-83
2022/02/21 03:19:56;;;;;;;1999.90;999.90;;;10.40;72.80;;;;;;4996232;28;20033;-83
2022/02/21 03:22:22;;;;;;;1999.90;999.90;;;10.40;72.80;;;;;;5008078;28;20512;-83
2022/02/21 03:24:48;;;;;;;1999.90;999.90;;;10.40;72.70;;;;;;4991248;28;20049;-83
2022/02/21 03:27:14;;;;;;;1999.90;999.90;;;10.40;72.80;;;;;;5027268;28;20390;-83
2022/02/21 03:29:42;;;;;;;1999.90;999.90;;;10.40;72.70;;;;;;5026507;28;20045;-83
2022/02/21 03:32:08;;;;;;;1999.90;999.90;;;10.40;72.70;;;;;;5006421;28;20050;-83
2022/02/21 03:34:34;;;;;;;1999.90;999.90;;;10.40;72.70;;;;;;5010316;28;20034;-83
2022/02/21 03:37:00;;;;;;;1999.90;999.90;;;10.40;72.70;;;;;;5009343;28;20038;-83
2022/02/21 03:39:26;;;;;;;1999.90;999.90;;;10.40;72.60;;;;;;5012827;28;20026;-83
2022/02/21 03:41:52;;;;;;;1999.90;999.90;;;10.40;72.50;;;;;;5045110;28;20034;-83
2022/02/21 03:44:18;;;;;;;1999.90;999.90;;;10.40;72.60;;;;;;4992459;28;20106;-83
2022/02/21 03:46:45;;;;;;;1999.90;999.90;;;10.40;72.60;;;;;;5011458;28;20041;-83
2022/02/21 03:49:11;;;;;;;1999.90;999.90;;;10.30;72.60;;;;;;5009547;28;20041;-83
2022/02/21 03:51:38;;;;;;;1999.90;999.90;;;10.30;72.60;;;;;;5045471;28;20049;-83
2022/02/21 03:54:05;;;;;;;1999.90;999.90;;;10.30;72.60;;;;;;5010301;28;20141;-83
2022/02/21 03:56:31;;;;;;;1999.90;999.90;;;10.20;72.50;;;;;;5043786;28;20033;-83
2022/02/21 03:58:57;;;;;;;1012.10;511.55;;;10.20;72.50;;;;;;5009327;28;20493;-83
2022/02/21 04:01:23;;;;;;;1999.90;999.90;;;10.20;72.50;;;;;;5010009;28;20034;-83
2022/02/21 04:03:49;;;;;;;1012.22;511.67;;;10.20;72.50;;;;;;5045083;28;20026;-83
2022/02/21 04:06:16;;;;;;;1012.08;511.52;;;10.10;72.40;;;;;;5013014;28;20038;-83
2022/02/21 04:08:42;;;;;;;1999.90;999.90;;;10.10;72.50;;;;;;4997191;28;20030;-83
2022/02/21 04:11:08;;;;;;;518.35;267.52;;;10.10;72.50;;;;;;5024817;28;20037;-83
2022/02/21 04:13:34;;;;;;;1506.35;756.05;;;10.10;72.50;;;;;;5008955;28;20056;-83
2022/02/21 04:16:00;;;;;;;1999.90;999.90;;;10.10;72.50;;;;;;5015777;28;20503;-83
2022/02/21 04:18:26;;;;;;;1999.90;999.90;;;10.10;72.50;;;;;;4994420;28;20038;-82
2022/02/21 04:20:53;;;;;;;1999.90;999.90;;;10.00;72.40;;;;;;5024109;28;20026;-83
2022/02/21 04:23:19;;;;;;;1999.90;999.90;;;10.00;72.40;;;;;;5023975;28;20046;-82
2022/02/21 04:25:46;;;;;;;1999.90;999.90;;;10.00;72.40;;;;;;5010697;28;20034;-83
2022/02/21 04:28:12;;;;;;;1999.90;999.90;;;10.00;72.50;;;;;;5044155;28;20037;-83
2022/02/21 04:30:38;;;;;;;1999.90;999.90;;;10.00;72.40;;;;;;5043708;28;20038;-84
2022/02/21 04:33:04;;;;;;;1999.90;999.90;;;9.90;72.30;;;;;;5012704;28;20053;-84
2022/02/21 04:35:30;;;;;;;1999.90;999.90;;;9.90;72.30;;;;;;5012454;28;20026;-84
2022/02/21 04:37:56;;;;;;;1999.90;999.90;;;9.90;72.30;;;;;;4994640;28;20053;-84
2022/02/21 04:40:27;;;;;;;1999.90;999.90;;;9.90;72.40;;;;;;4992676;28;20061;-83
2022/02/21 04:42:53;;;;;;;519.22;268.33;;;9.80;72.40;;;;;;5012529;28;20034;-83
2022/02/21 04:45:22;;;;;;;1999.90;999.90;;;9.80;72.30;;;;;;5015413;28;20030;-83
2022/02/21 04:47:49;;;;;;;1999.90;999.90;;;9.80;72.40;;;;;;5013308;28;20490;-83
2022/02/21 04:50:15;;;;;;;1999.90;999.90;;;9.80;72.30;;;;;;5011593;28;20483;-83
2022/02/21 04:52:41;;;;;;;518.45;267.55;;;9.80;72.20;;;;;;5009590;28;20041;-84
2022/02/21 04:55:08;;;;;;;1999.90;999.90;;;9.80;72.20;;;;;;4977576;28;20038;-85
2022/02/21 04:57:34;;;;;;;517.20;266.38;;;9.80;72.30;;;;;;5010880;28;20038;-83
2022/02/21 05:00:00;;;;;;;1999.90;999.90;;;9.80;72.20;;;;;;5013175;28;20029;-84
2022/02/21 05:02:26;;;;;;;1999.90;999.90;;;9.80;72.20;;;;;;5009160;28;20034;-83
2022/02/21 05:04:52;;;;;;;1999.90;999.90;;;9.70;72.20;;;;;;4994332;28;20113;-83
2022/02/21 05:07:19;;;;;;;1999.90;999.90;;;9.70;72.20;;;;;;5024669;28;20045;-83
2022/02/21 05:09:45;;;;;;;517.88;267.05;;;9.70;72.20;;;;;;5011439;28;20037;-83
2022/02/21 05:12:11;;;;;;;23.13;22.02;;;9.70;72.20;;;;;;5011773;28;20034;-83
2022/02/21 05:14:37;;;;;;;1012.50;511.75;;;9.70;72.20;;;;;;5010665;28;20236;-83
2022/02/21 05:17:05;;;;;;;517.80;266.98;;;9.70;72.20;;;;;;5010491;28;20030;-83
2022/02/21 05:19:31;;;;;;;517.00;266.25;;;9.70;72.20;;;;;;5006030;28;20456;-83
2022/02/21 05:21:57;;;;;;;1999.90;999.90;;;9.70;72.20;;;;;;5009157;28;20475;-83
2022/02/21 05:24:23;;;;;;;23.85;22.67;;;9.70;72.20;;;;;;4994711;28;20054;-83
2022/02/21 05:26:50;;;;;;;24.60;23.33;;;9.60;72.10;;;;;;5024380;28;20033;-83
2022/02/21 05:29:16;;;;;;;517.58;266.75;;;9.60;72.10;;;;;;5024174;28;20498;-83
2022/02/21 05:31:42;;;;;;;23.35;22.25;;;9.60;72.10;;;;;;5005749;28;20054;-83
2022/02/21 05:34:08;;;;;;;517.38;266.52;;;9.60;72.90;;;;;;5009649;28;20046;-83
2022/02/21 05:36:34;;;;;;;23.85;22.67;;;9.60;72.10;;;;;;5010587;28;20053;-83
2022/02/21 05:39:00;;;;;;;517.50;266.63;;;9.60;72.20;;;;;;5009848;28;20486;-83
2022/02/21 05:41:26;;;;;;;23.02;21.92;;;9.50;72.10;;;;;;5009541;28;20038;-83
2022/02/21 05:43:52;;;;;;;24.50;23.30;;;9.60;72.20;;;;;;5007424;28;20038;-83
2022/02/21 05:46:19;;;;;;;23.80;22.60;;;9.50;72.10;;;;;;5007306;28;20042;-83
2022/02/21 05:48:45;;;;;;;23.30;22.20;;;9.50;72.10;;;;;;4993159;28;20045;-83
2022/02/21 05:51:11;;;;;;;22.85;21.80;;;9.50;72.10;;;;;;5011243;28;20029;-83
2022/02/21 05:53:41;;;;;;;22.90;21.80;;;9.50;72.00;;;;;;5010262;28;20057;-83
2022/02/21 05:56:08;;;;;;;23.73;22.63;;;9.50;72.00;;;;;;5023565;28;20371;-83
2022/02/21 05:58:34;;;;;;;22.92;21.73;;;9.50;72.00;;;;;;5007523;28;20557;-83
2022/02/21 06:01:00;;;;;;;23.38;22.17;;;9.50;72.00;;;;;;5010045;28;20041;-83
2022/02/21 06:03:26;;;;;;;24.10;22.65;;;9.50;71.90;;;;;;5043586;28;20086;-83
2022/02/21 06:05:52;;;;;;;22.55;21.55;;;9.50;72.00;;;;;;5009915;28;20029;-83
2022/02/21 06:08:18;;;;;;;22.27;21.17;;;9.40;71.90;;;;;;5007065;28;20030;-83
2022/02/21 06:10:45;;;;;;;23.35;22.25;;;9.50;71.90;;;;;;5007325;28;20467;-83
2022/02/21 06:13:11;;;;;;;22.50;21.50;;;9.50;71.90;;;;;;5009927;28;20046;-83
2022/02/21 06:15:37;;;;;;;23.10;21.85;;;9.40;71.80;;;;;;4974511;28;20395;-83
2022/02/21 06:18:03;;;;;;;22.77;21.67;;;9.50;71.90;;;;;;5009110;28;20030;-83
2022/02/21 06:20:30;;;;;;;22.85;21.83;;;9.50;71.90;;;;;;5008199;28;20034;-83
2022/02/21 06:22:56;;;;;;;22.83;21.73;;;9.50;71.80;;;;;;5009972;28;20045;-83
2022/02/21 06:25:22;;;;;;;21.80;20.80;;;9.50;71.80;;;;;;5008956;28;20499;-83
2022/02/21 06:27:48;;;;;;;22.02;20.92;;;9.50;71.70;;;;;;5009971;28;20041;-84
2022/02/21 06:30:15;;;;;;;23.27;22.13;;;9.50;71.70;;;;;;4991776;28;20034;-83
2022/02/21 06:32:41;;;;;;;21.25;20.17;;;9.50;71.60;;;;;;5025124;28;20402;-83
2022/02/21 06:35:08;;;;;;;22.05;20.95;;;9.60;71.60;;;;;;5007343;28;20049;-87
2022/02/21 06:37:38;;;;;;;22.30;21.27;;;9.60;71.60;;;;;;5007523;28;20041;-91
2022/02/21 06:40:05;;;;;;;23.48;21.83;;;9.70;72.30;;;;;;5008774;28;20150;-84
2022/02/21 06:42:31;;;;;;;21.63;20.63;;;9.80;71.30;;;;;;5020081;28;20037;-85
2022/02/21 06:44:57;;;;;;;1999.90;999.90;;;9.80;71.10;;;;;;5010078;28;20026;-85
2022/02/21 06:47:23;;;;;;;1999.90;999.90;;;9.90;71.20;;;;;;5010170;28;20053;-85
2022/02/21 06:49:49;;;;;;;1999.90;999.90;;;9.80;71.20;;;;;;5024639;28;20475;-85
2022/02/21 06:52:15;;;;;;;1999.90;999.90;;;9.80;71.20;;;;;;5028398;28;20042;-85
2022/02/21 06:54:41;;;;;;;1999.90;999.90;;;9.80;71.30;;;;;;5013172;28;20494;-86
2022/02/21 06:57:08;;;;;;;1999.90;999.90;;;9.80;71.30;;;;;;5012407;28;20026;-86
2022/02/21 06:59:34;;;;;;;1011.05;510.55;;;9.70;71.40;;;;;;5011072;28;20437;-86
2022/02/21 07:02:00;;;;;;;23.52;22.25;;;9.80;71.30;;;;;;4996098;28;20030;-87
2022/02/21 07:04:26;;;;;;;22.95;21.88;;;9.80;71.30;;;;;;5000526;28;20030;-87
2022/02/21 07:06:52;;;;;;;22.95;21.88;;;9.80;71.20;;;;;;5011849;28;20034;-86
2022/02/21 07:09:18;;;;;;;1011.80;511.20;;;9.80;71.90;;;;;;5013036;28;20022;-87
2022/02/21 07:11:44;;;;;;;22.92;21.83;;;9.80;71.00;;;;;;5018351;28;20029;-87
2022/02/21 07:14:10;;;;;;;1999.90;999.90;;;9.90;70.90;;;;;;5001614;28;20044;-87
2022/02/21 07:16:36;;;;;;;1999.90;999.90;;;9.90;70.90;;;;;;5007551;28;20034;-86
2022/02/21 07:19:02;;;;;;;1999.90;999.90;;;9.90;70.90;;;;;;5026969;28;20090;-88
2022/02/21 07:21:28;;;;;;;1999.90;999.90;;;9.90;70.90;;;;;;5014317;28;20029;-87
2022/02/21 07:23:54;;;;;;;1999.90;999.90;;;10.00;70.90;;;;;;5012468;28;20057;-87
2022/02/21 07:26:22;;;;;;;1999.90;999.90;;;10.00;70.90;;;;;;5017956;28;20030;-85
2022/02/21 07:28:48;;;;;;;1999.90;999.90;;;10.00;70.90;;;;;;5025788;28;20022;-85
2022/02/21 07:31:14;;;;;;;1999.90;999.90;;;10.00;70.80;;;;;;4994637;28;20045;-86
2022/02/21 07:33:40;;;;;;;1999.90;999.90;;;10.00;70.70;;;;;;4995656;28;20053;-86
2022/02/21 07:36:06;;;;;;;1999.90;999.90;;;10.10;70.70;;;;;;5014188;28;20034;-85
2022/02/21 07:38:32;;;;;;;1999.90;999.90;;;10.10;70.70;;;;;;5010759;28;20048;-86
2022/02/21 07:41:00;;;;;;;1999.90;999.90;;;10.10;70.60;;;;;;5010958;28;20029;-86
2022/02/21 07:43:27;;;;;;;1999.90;999.90;;;10.10;70.70;;;;;;5043618;28;20040;-86
2022/02/21 07:45:53;;;;;;;1999.90;999.90;;;10.10;70.60;;;;;;5044679;28;20030;-87
2022/02/21 07:48:19;;;;;;;1999.90;999.90;;;10.10;70.60;;;;;;5008867;28;20052;-87
2022/02/21 07:50:47;;;;;;;1999.90;999.90;;;10.10;70.70;;;;;;5013197;28;20057;-86
2022/02/21 07:53:13;;;;;;;1999.90;999.90;;;10.10;70.60;;;;;;5013037;28;20061;-86
2022/02/21 07:55:39;;;;;;;1999.90;999.90;;;10.20;70.60;;;;;;5007778;28;20034;-87
2022/02/21 07:58:05;;;;;;;1999.90;999.90;;;10.30;70.30;;;;;;5007473;28;20487;-87
2022/02/21 08:00:32;;;;;;;1999.90;999.90;;;10.40;70.00;;;;;;5010841;28;20379;-84
2022/02/21 08:02:58;;;;;;;1999.90;999.90;;;10.60;69.80;;;;;;5007682;28;20030;-84
2022/02/21 08:05:24;;;;;;;1999.90;999.90;;;10.80;69.30;;;;;;5009825;28;20036;-86
2022/02/21 08:07:50;;;;;;;1999.90;999.90;;;10.80;69.00;;;;;;5010737;28;20033;-86
2022/02/21 08:10:16;;;;;;;1999.90;999.90;;;10.80;69.10;;;;;;4993979;28;20497;-85
2022/02/21 08:12:43;;;;;;;1999.90;999.90;;;10.80;69.30;;;;;;5012225;28;20057;-86
2022/02/21 08:15:09;;;;;;;1999.90;999.90;;;10.90;69.30;;;;;;5011115;28;20044;-85
2022/02/21 08:17:43;;;;;;;1999.90;999.90;;;11.10;69.00;;;;;;5010763;28;20467;-85
2022/02/21 08:20:10;;;;;;;1999.90;999.90;;;11.30;68.60;;;;;;5023736;28;20029;-83
2022/02/21 08:22:36;;;;;;;1999.90;999.90;;;11.20;68.60;;;;;;5023862;28;20053;-84
2022/02/21 08:25:03;;;;;;;1999.90;999.90;;;11.10;68.70;;;;;;5012463;28;20049;-85
2022/02/21 08:27:29;;;;;;;1999.90;999.90;;;11.10;69.00;;;;;;4991098;28;20033;-86
2022/02/21 08:29:55;;;;;;;1999.90;999.90;;;11.00;69.30;;;;;;5011716;28;20037;-88
2022/02/21 08:32:21;;;;;;;1999.90;999.90;;;11.00;69.40;;;;;;5023935;28;20046;-88
2022/02/21 08:34:47;;;;;;;1999.90;999.90;;;11.10;69.40;;;;;;5009024;28;20056;-88
2022/02/21 08:37:14;;;;;;;1999.90;999.90;;;11.20;69.40;;;;;;5010263;28;20029;-85
2022/02/21 08:39:40;;;;;;;1999.90;999.90;;;11.10;69.30;;;;;;5011113;28;20071;-85
2022/02/21 08:42:06;;;;;;;1999.90;999.90;;;11.10;69.40;;;;;;5007477;28;20049;-86
2022/02/21 08:44:32;;;;;;;1999.90;999.90;;;11.10;69.60;;;;;;5024351;28;20471;-86
2022/02/21 08:46:58;;;;;;;1999.90;999.90;;;11.00;69.50;;;;;;5006629;28;20033;-86
2022/02/21 08:49:25;;;;;;;1999.90;999.90;;;11.00;69.60;;;;;;5044057;28;20033;-86
2022/02/21 08:51:51;;;;;;;1999.90;999.90;;;11.10;69.60;;;;;;5043863;28;20045;-87
2022/02/21 08:54:19;;;;;;;1999.90;999.90;;;11.10;69.60;;;;;;5012638;28;20048;-86
2022/02/21 08:56:46;;;;;;;1999.90;999.90;;;11.10;69.50;;;;;;5011754;28;20033;-87
2022/02/21 08:59:12;;;;;;;1999.90;999.90;;;11.10;69.50;;;;;;5009268;28;20033;-87
2022/02/21 09:01:44;;;;;;;1999.90;999.90;;;11.10;69.60;;;;;;4995279;28;20038;-87
2022/02/21 09:04:10;;;;;;;1999.90;999.90;;;11.10;69.60;;;;;;5009368;28;20394;-86
2022/02/21 09:06:37;;;;;;;1999.90;999.90;;;11.30;69.40;;;;;;5010540;28;20042;-86
2022/02/21 09:09:03;;;;;;;1999.90;999.90;;;11.30;69.10;;;;;;4991064;28;20037;-84
2022/02/21 09:11:30;;;;;;;1999.90;999.90;;;11.30;69.10;;;;;;5010926;28;20032;-85
2022/02/21 09:13:56;;;;;;;1999.90;999.90;;;11.40;69.20;;;;;;4980038;28;20053;-87
2022/02/21 09:16:22;;;;;;;1999.90;999.90;;;11.40;69.10;;;;;;5043074;28;20042;-86
2022/02/21 09:18:48;;;;;;;1999.90;999.90;;;11.70;68.80;;;;;;5042866;28;20034;-87
2022/02/21 09:21:14;;;;;;;1999.90;999.90;;;12.00;68.10;;;;;;5007848;28;20025;-88
2022/02/21 09:23:40;;;;;;;1999.90;999.90;;;12.40;67.50;;;;;;5038332;28;20057;-88
2022/02/21 09:26:08;;;;;;;1999.90;999.90;;;12.70;66.80;;;;;;5024589;28;20046;-83
2022/02/21 09:28:34;;;;;;;1999.90;999.90;;;13.00;66.10;;;;;;5010149;28;20033;-88
2022/02/21 09:31:00;;;;;;;1999.90;999.90;;;13.20;65.80;;;;;;4977691;28;20030;-86
2022/02/21 09:33:26;;;;;;;1999.90;999.90;;;13.40;65.50;;;;;;5007671;28;20045;-90
2022/02/21 09:35:52;;;;;;;1999.90;999.90;;;13.40;65.50;;;;;;5006908;28;20403;-89
2022/02/21 09:38:18;;;;;;;1999.90;999.90;;;13.50;65.50;;;;;;5009213;28;20060;-89
2022/02/21 09:40:46;;;;;;;1999.90;999.90;;;13.50;65.40;;;;;;5011296;28;20037;-88
2022/02/21 09:43:13;;;;;;;1999.90;999.90;;;13.60;65.50;;;;;;5010073;28;20040;-87
2022/02/21 09:45:42;;;;;;;1999.90;999.90;;;13.70;65.60;;;;;;5006225;28;20041;-88
2022/02/21 09:48:08;;;;;;;1999.90;999.90;;;13.80;65.40;;;;;;4990318;28;20399;-88
2022/02/21 09:50:34;;;;;;;1999.90;999.90;;;13.90;65.20;;;;;;5023141;28;20029;-89
2022/02/21 09:53:02;;;;;;;1999.90;999.90;;;14.10;65.10;;;;;;5007741;28;20049;-87
2022/02/21 09:55:28;;;;;;;1999.90;999.90;;;14.20;64.80;;;;;;5007204;28;20032;-89
2022/02/21 09:57:55;;;;;;;1999.90;999.90;;;14.10;64.70;;;;;;5010019;28;20046;-88
2022/02/21 10:00:22;;;;;;;1999.90;999.90;;;13.80;65.20;;;;;;5009171;28;20041;-89
2022/02/21 10:02:49;;;;;;;1999.90;999.90;;;13.60;65.70;;;;;;4991191;28;20030;-88
2022/02/21 10:05:26;;;;;;;1999.90;999.90;;;13.50;66.30;;;;;;4991275;28;20037;-89
2022/02/21 10:07:53;;;;;;;1999.90;999.90;;;13.30;66.60;;;;;;5024995;28;20029;-88
2022/02/21 10:10:21;;;;;;;1999.90;999.90;;;13.10;66.90;;;;;;5007792;28;20030;-89
2022/02/21 10:12:55;;;;;;;1999.90;999.90;;;12.90;67.10;;;;;;5042552;28;20041;-84
2022/02/21 10:15:23;;;;;;;1999.90;999.90;;;12.80;67.40;;;;;;5039579;28;20037;-85
2022/02/21 10:17:49;;;;;;;1999.90;999.90;;;12.80;67.40;;;;;;5008537;28;20033;-85
2022/02/21 10:20:17;;;;;;;1999.90;999.90;;;12.70;67.50;;;;;;5046962;28;20030;-78
2022/02/21 10:23:03;;;;;;;1999.90;999.90;;;12.60;67.50;;;;;;5019103;28;20053;-89
2022/02/21 10:25:29;;;;;;;1999.90;999.90;;;12.60;67.60;;;;;;4997912;28;20036;-90
2022/02/21 10:27:59;;;;;;;1999.90;999.90;;;12.50;67.60;;;;;;5021124;28;20038;-86
2022/02/21 10:30:25;;;;;;;1999.90;999.90;;;12.50;67.70;;;;;;5012322;28;20037;-89
2022/02/21 10:32:52;;;;;;;1999.90;999.90;;;12.50;67.80;;;;;;4995258;28;20039;-87
2022/02/21 10:35:25;;;;;;;1999.90;999.90;;;12.50;67.60;;;;;;5014710;28;20038;-88
2022/02/21 10:37:58;;;;;;;1999.90;999.90;;;12.60;67.40;;;;;;5012244;28;20029;-88
2022/02/21 10:40:36;;;;;;;1999.90;999.90;;;12.70;67.00;;;;;;4996014;28;20030;-87
2022/02/21 10:43:14;;;;;;;1999.90;999.90;;;12.90;66.70;;;;;;5012440;28;20049;-87
2022/02/21 10:45:40;;;;;;;1999.90;999.90;;;13.10;66.20;;;;;;5009798;28;20034;-88
2022/02/21 10:48:17;;;;;;;1999.90;999.90;;;13.20;65.90;;;;;;5013747;28;20026;-85
2022/02/21 10:51:02;;;;;;;1999.90;999.90;;;13.20;65.70;;;;;;5011554;28;20030;-83
2022/02/21 10:53:44;;;;;;;1999.90;999.90;;;13.30;65.50;;;;;;5011745;28;20038;-85
2022/02/21 10:56:11;;;;;;;1999.90;999.90;;;13.20;65.50;;;;;;5011809;28;20061;-83
2022/02/21 10:58:38;;;;;;;1999.90;999.90;;;13.10;65.40;;;;;;5021823;28;20027;-81
2022/02/21 11:01:05;;;;;;;1999.90;999.90;;;13.10;65.60;;;;;;5011911;28;20038;-84
2022/02/21 11:03:31;;;;;;;1999.90;999.90;;;13.00;65.80;;;;;;5008161;28;20368;-85
2022/02/21 11:06:01;;;;;;;1999.90;999.90;;;12.90;65.80;;;;;;5017460;28;20033;-87
2022/02/21 11:08:29;;;;;;;1999.90;999.90;;;12.80;66.00;;;;;;5022059;28;20029;-85
2022/02/21 11:11:00;;;;;;;1999.90;999.90;;;12.80;66.30;;;;;;5020815;28;20033;-86
2022/02/21 11:13:29;;;;;;;;;;;12.70;66.40;;;;;;5020330;28;20038;-90
2022/02/21 11:15:56;;;;;;;1999.90;999.90;;;12.60;66.60;;;;;;5011967;28;20135;-90
2022/02/21 11:18:22;;;;;;;1999.90;999.90;;;12.50;66.80;;;;;;5014624;28;20033;-87
2022/02/21 11:20:48;;;;;;;1999.90;999.90;;;12.30;67.10;;;;;;5009846;28;20026;-89
2022/02/21 11:23:14;;;;;;;1999.90;999.90;;;12.20;67.50;;;;;;4993589;28;20058;-89
2022/02/21 11:25:58;;;;;;;1999.90;999.90;;;12.10;67.80;;;;;;5012247;28;20037;-88
2022/02/21 11:28:41;;;;;;;1999.90;999.90;;;12.00;68.00;;;;;;5012427;28;20395;-88
2022/02/21 11:31:08;;;;;;;1999.90;999.90;;;12.00;68.10;;;;;;4995065;28;20495;-87
2022/02/21 11:34:02;;;;;;;1999.90;999.90;;;12.00;68.30;;;;;;5013430;28;20455;-90
2022/02/21 11:36:28;;;;;;;1999.90;999.90;;;12.00;68.30;;;;;;5013666;28;20044;-90
2022/02/21 11:38:55;;;;;;;1999.90;999.90;;;12.10;68.20;;;;;;5009068;28;20037;-89
2022/02/21 11:41:35;;;;;;;1999.90;999.90;;;12.20;67.90;;;;;;5012006;28;20041;-91
2022/02/21 11:44:20;;;;;;;1999.90;999.90;;;12.40;67.80;;;;;;5011929;28;20040;-87
2022/02/21 11:46:46;;;;;;;1999.90;999.90;;;12.50;67.70;;;;;;5023079;28;20031;-86
2022/02/21 11:49:28;;;;;;;1999.90;999.90;;;12.70;67.40;;;;;;5018898;28;20026;-85
2022/02/21 11:51:54;;;;;;;;;;;13.00;67.00;;;;;;5026026;28;20030;-86
2022/02/21 11:54:20;;;;;;;1999.90;999.90;;;13.00;66.80;;;;;;5012693;28;19917;-84
2022/02/21 11:56:51;;;;;;;1999.90;999.90;;;13.10;66.60;;;;;;5011296;28;20032;-81
2022/02/21 11:59:26;;;;;;;1999.90;999.90;;;13.10;66.70;;;;;;5004966;28;20050;-81
2022/02/21 12:02:03;;;;;;;1999.90;999.90;;;13.00;66.70;;;;;;5008329;28;20045;-81
2022/02/21 12:04:50;;;;;;;1999.90;999.90;;;12.90;66.90;;;;;;5006000;28;20042;-81
2022/02/21 12:07:20;;;;;;;1999.90;999.90;;;12.90;67.10;;;;;;5000083;28;20045;-81